sensor_id;sensor_type;location;lat;lon;timestamp;P1;durP1;ratioP1;P2;durP2;ratioP2
35276;SDS011;21401;50.878;8.050;2023-02-28T00:00:24;5.90;;;1.50;;
35276;SDS011;21401;50.878;8.050;2023-02-28T00:02:50;3.90;;;1.60;;
35276;SDS011;21401;50.878;8.050;2023-02-28T00:05:20;3.50;;;1.40;;
35276;SDS011;21401;50.878;8.050;2023-02-28T00:07:47;3.38;;;1.60;;
35276;SDS011;21401;50.878;8.050;2023-02-28T00:10:15;4.53;;;2.10;;
35276;SDS011;21401;50.878;8.050;2023-02-28T00:12:49;13.35;;;2.08;;
35276;SDS011;21401;50.878;8.050;2023-02-28T00:15:16;3.28;;;1.80;;
35276;SDS011;21401;50.878;8.050;2023-02-28T00:17:44;2.83;;;1.75;;
35276;SDS011;21401;50.878;8.050;2023-02-28T00:20:11;3.42;;;1.63;;
35276;SDS011;21401;50.878;8.050;2023-02-28T00:22:38;3.50;;;1.60;;
35276;SDS011;21401;50.878;8.050;2023-02-28T00:25:08;6.95;;;1.85;;
35276;SDS011;21401;50.878;8.050;2023-02-28T00:27:35;7.07;;;1.60;;
35276;SDS011;21401;50.878;8.050;2023-02-28T00:30:02;4.60;;;1.80;;
35276;SDS011;21401;50.878;8.050;2023-02-28T00:32:29;3.10;;;1.73;;
35276;SDS011;21401;50.878;8.050;2023-02-28T00:34:55;5.75;;;2.08;;
35276;SDS011;21401;50.878;8.050;2023-02-28T00:37:20;5.45;;;1.80;;
35276;SDS011;21401;50.878;8.050;2023-02-28T00:39:46;6.47;;;2.42;;
35276;SDS011;21401;50.878;8.050;2023-02-28T00:42:14;3.50;;;1.80;;
35276;SDS011;21401;50.878;8.050;2023-02-28T00:44:40;3.95;;;1.63;;
35276;SDS011;21401;50.878;8.050;2023-02-28T00:47:06;6.20;;;1.73;;
35276;SDS011;21401;50.878;8.050;2023-02-28T00:49:32;6.25;;;2.60;;
35276;SDS011;21401;50.878;8.050;2023-02-28T00:51:58;8.38;;;3.45;;
35276;SDS011;21401;50.878;8.050;2023-02-28T00:54:23;6.55;;;2.65;;
35276;SDS011;21401;50.878;8.050;2023-02-28T00:56:49;5.00;;;2.50;;
35276;SDS011;21401;50.878;8.050;2023-02-28T00:59:16;5.82;;;2.17;;
35276;SDS011;21401;50.878;8.050;2023-02-28T01:01:42;6.38;;;2.28;;
35276;SDS011;21401;50.878;8.050;2023-02-28T01:04:09;8.25;;;2.70;;
35276;SDS011;21401;50.878;8.050;2023-02-28T01:06:35;3.83;;;1.88;;
35276;SDS011;21401;50.878;8.050;2023-02-28T01:09:01;5.57;;;1.60;;
35276;SDS011;21401;50.878;8.050;2023-02-28T01:11:28;2.63;;;2.03;;
35276;SDS011;21401;50.878;8.050;2023-02-28T01:13:54;6.13;;;1.85;;
35276;SDS011;21401;50.878;8.050;2023-02-28T01:16:20;3.70;;;1.52;;
35276;SDS011;21401;50.878;8.050;2023-02-28T01:18:46;4.00;;;2.10;;
35276;SDS011;21401;50.878;8.050;2023-02-28T01:21:13;2.67;;;1.65;;
35276;SDS011;21401;50.878;8.050;2023-02-28T01:23:46;2.78;;;1.30;;
35276;SDS011;21401;50.878;8.050;2023-02-28T01:26:15;2.78;;;1.30;;
35276;SDS011;21401;50.878;8.050;2023-02-28T01:28:43;5.32;;;1.80;;
35276;SDS011;21401;50.878;8.050;2023-02-28T01:31:09;2.63;;;1.83;;
35276;SDS011;21401;50.878;8.050;2023-02-28T01:33:38;3.33;;;1.77;;
35276;SDS011;21401;50.878;8.050;2023-02-28T01:36:05;3.03;;;1.90;;
35276;SDS011;21401;50.878;8.050;2023-02-28T01:38:36;3.85;;;1.48;;
35276;SDS011;21401;50.878;8.050;2023-02-28T01:41:02;3.13;;;1.90;;
35276;SDS011;21401;50.878;8.050;2023-02-28T01:43:30;3.00;;;1.67;;
35276;SDS011;21401;50.878;8.050;2023-02-28T01:45:58;4.93;;;2.13;;
35276;SDS011;21401;50.878;8.050;2023-02-28T01:48:30;3.83;;;1.67;;
35276;SDS011;21401;50.878;8.050;2023-02-28T01:50:59;3.78;;;1.75;;
35276;SDS011;21401;50.878;8.050;2023-02-28T01:53:35;4.30;;;2.22;;
35276;SDS011;21401;50.878;8.050;2023-02-28T01:56:08;3.45;;;1.80;;
35276;SDS011;21401;50.878;8.050;2023-02-28T01:58:36;5.85;;;1.85;;
35276;SDS011;21401;50.878;8.050;2023-02-28T02:01:03;6.05;;;2.28;;
35276;SDS011;21401;50.878;8.050;2023-02-28T02:03:29;2.45;;;1.70;;
35276;SDS011;21401;50.878;8.050;2023-02-28T02:05:56;3.63;;;1.70;;
35276;SDS011;21401;50.878;8.050;2023-02-28T02:08:26;3.00;;;1.83;;
35276;SDS011;21401;50.878;8.050;2023-02-28T02:10:54;3.83;;;2.30;;
35276;SDS011;21401;50.878;8.050;2023-02-28T02:18:48;4.07;;;1.83;;
35276;SDS011;21401;50.878;8.050;2023-02-28T02:21:24;4.47;;;1.98;;
35276;SDS011;21401;50.878;8.050;2023-02-28T02:26:52;5.13;;;2.47;;
35276;SDS011;21401;50.878;8.050;2023-02-28T02:35:17;4.05;;;2.10;;
35276;SDS011;21401;50.878;8.050;2023-02-28T02:37:52;3.42;;;2.25;;
35276;SDS011;21401;50.878;8.050;2023-02-28T02:40:43;4.65;;;1.77;;
35276;SDS011;21401;50.878;8.050;2023-02-28T02:43:37;4.05;;;1.40;;
35276;SDS011;21401;50.878;8.050;2023-02-28T02:46:14;3.88;;;1.73;;
35276;SDS011;21401;50.878;8.050;2023-02-28T02:49:08;4.72;;;2.40;;
35276;SDS011;21401;50.878;8.050;2023-02-28T02:51:38;5.65;;;2.60;;
35276;SDS011;21401;50.878;8.050;2023-02-28T02:54:10;3.05;;;2.30;;
35276;SDS011;21401;50.878;8.050;2023-02-28T02:56:41;6.25;;;2.30;;
35276;SDS011;21401;50.878;8.050;2023-02-28T02:59:09;4.25;;;2.20;;
35276;SDS011;21401;50.878;8.050;2023-02-28T03:01:38;2.38;;;1.92;;
35276;SDS011;21401;50.878;8.050;2023-02-28T03:04:08;4.00;;;2.40;;
35276;SDS011;21401;50.878;8.050;2023-02-28T03:06:37;3.65;;;2.10;;
35276;SDS011;21401;50.878;8.050;2023-02-28T03:09:02;4.97;;;2.08;;
35276;SDS011;21401;50.878;8.050;2023-02-28T03:11:29;2.92;;;2.30;;
35276;SDS011;21401;50.878;8.050;2023-02-28T03:14:03;3.83;;;2.88;;
35276;SDS011;21401;50.878;8.050;2023-02-28T03:21:58;2.78;;;1.80;;
35276;SDS011;21401;50.878;8.050;2023-02-28T03:24:57;3.38;;;1.95;;
35276;SDS011;21401;50.878;8.050;2023-02-28T03:27:29;4.00;;;1.80;;
35276;SDS011;21401;50.878;8.050;2023-02-28T03:30:12;4.47;;;2.65;;
35276;SDS011;21401;50.878;8.050;2023-02-28T03:33:09;4.05;;;2.15;;
35276;SDS011;21401;50.878;8.050;2023-02-28T03:35:55;2.83;;;1.90;;
35276;SDS011;21401;50.878;8.050;2023-02-28T03:40:57;2.88;;;1.83;;
35276;SDS011;21401;50.878;8.050;2023-02-28T03:43:31;3.25;;;1.60;;
35276;SDS011;21401;50.878;8.050;2023-02-28T03:46:00;2.83;;;1.70;;
35276;SDS011;21401;50.878;8.050;2023-02-28T03:48:51;2.50;;;1.70;;
35276;SDS011;21401;50.878;8.050;2023-02-28T03:51:17;2.58;;;1.60;;
35276;SDS011;21401;50.878;8.050;2023-02-28T03:53:50;8.68;;;2.58;;
35276;SDS011;21401;50.878;8.050;2023-02-28T03:56:27;6.10;;;2.20;;
35276;SDS011;21401;50.878;8.050;2023-02-28T03:59:04;4.63;;;2.25;;
35276;SDS011;21401;50.878;8.050;2023-02-28T04:01:44;6.20;;;2.05;;
35276;SDS011;21401;50.878;8.050;2023-02-28T04:04:12;4.20;;;2.20;;
35276;SDS011;21401;50.878;8.050;2023-02-28T04:06:39;3.58;;;2.40;;
35276;SDS011;21401;50.878;8.050;2023-02-28T04:09:06;4.35;;;2.25;;
35276;SDS011;21401;50.878;8.050;2023-02-28T04:14:16;3.20;;;2.20;;
35276;SDS011;21401;50.878;8.050;2023-02-28T04:16:42;4.72;;;2.50;;
35276;SDS011;21401;50.878;8.050;2023-02-28T04:19:08;3.03;;;2.08;;
35276;SDS011;21401;50.878;8.050;2023-02-28T04:21:36;4.53;;;2.58;;
35276;SDS011;21401;50.878;8.050;2023-02-28T04:24:06;4.65;;;2.58;;
35276;SDS011;21401;50.878;8.050;2023-02-28T04:26:39;4.60;;;2.67;;
35276;SDS011;21401;50.878;8.050;2023-02-28T04:29:05;4.03;;;2.45;;
35276;SDS011;21401;50.878;8.050;2023-02-28T04:31:32;7.00;;;2.80;;
35276;SDS011;21401;50.878;8.050;2023-02-28T04:33:58;3.65;;;2.63;;
35276;SDS011;21401;50.878;8.050;2023-02-28T04:36:24;4.43;;;2.83;;
35276;SDS011;21401;50.878;8.050;2023-02-28T04:38:50;5.07;;;2.50;;
35276;SDS011;21401;50.878;8.050;2023-02-28T04:41:16;5.80;;;2.65;;
35276;SDS011;21401;50.878;8.050;2023-02-28T04:43:42;3.83;;;2.97;;
35276;SDS011;21401;50.878;8.050;2023-02-28T04:46:08;3.80;;;2.97;;
35276;SDS011;21401;50.878;8.050;2023-02-28T04:48:37;3.22;;;2.63;;
35276;SDS011;21401;50.878;8.050;2023-02-28T04:51:05;3.55;;;2.47;;
35276;SDS011;21401;50.878;8.050;2023-02-28T04:53:35;4.82;;;3.00;;
35276;SDS011;21401;50.878;8.050;2023-02-28T04:56:02;3.92;;;2.95;;
35276;SDS011;21401;50.878;8.050;2023-02-28T04:58:28;5.47;;;2.30;;
35276;SDS011;21401;50.878;8.050;2023-02-28T05:00:56;3.60;;;2.65;;
35276;SDS011;21401;50.878;8.050;2023-02-28T05:03:29;5.95;;;3.05;;
35276;SDS011;21401;50.878;8.050;2023-02-28T05:05:55;6.18;;;3.15;;
35276;SDS011;21401;50.878;8.050;2023-02-28T05:08:20;5.45;;;3.05;;
35276;SDS011;21401;50.878;8.050;2023-02-28T05:10:46;6.57;;;2.83;;
35276;SDS011;21401;50.878;8.050;2023-02-28T05:13:12;4.68;;;2.95;;
35276;SDS011;21401;50.878;8.050;2023-02-28T05:15:38;4.20;;;2.63;;
35276;SDS011;21401;50.878;8.050;2023-02-28T05:18:04;4.88;;;2.65;;
35276;SDS011;21401;50.878;8.050;2023-02-28T05:20:29;3.45;;;2.08;;
35276;SDS011;21401;50.878;8.050;2023-02-28T05:22:55;4.00;;;2.75;;
35276;SDS011;21401;50.878;8.050;2023-02-28T05:25:23;4.35;;;2.47;;
35276;SDS011;21401;50.878;8.050;2023-02-28T05:27:48;4.25;;;2.30;;
35276;SDS011;21401;50.878;8.050;2023-02-28T05:30:14;3.25;;;2.22;;
35276;SDS011;21401;50.878;8.050;2023-02-28T05:32:40;3.83;;;2.47;;
35276;SDS011;21401;50.878;8.050;2023-02-28T05:35:07;4.47;;;2.80;;
35276;SDS011;21401;50.878;8.050;2023-02-28T05:37:34;5.47;;;3.15;;
35276;SDS011;21401;50.878;8.050;2023-02-28T05:40:00;9.43;;;4.28;;
35276;SDS011;21401;50.878;8.050;2023-02-28T05:42:26;9.23;;;4.13;;
35276;SDS011;21401;50.878;8.050;2023-02-28T05:44:52;7.32;;;4.93;;
35276;SDS011;21401;50.878;8.050;2023-02-28T05:47:17;9.43;;;4.85;;
35276;SDS011;21401;50.878;8.050;2023-02-28T05:49:43;6.97;;;4.03;;
35276;SDS011;21401;50.878;8.050;2023-02-28T05:52:08;6.93;;;4.25;;
35276;SDS011;21401;50.878;8.050;2023-02-28T05:54:34;5.50;;;2.08;;
35276;SDS011;21401;50.878;8.050;2023-02-28T05:57:00;4.22;;;2.55;;
35276;SDS011;21401;50.878;8.050;2023-02-28T05:59:25;4.55;;;2.75;;
35276;SDS011;21401;50.878;8.050;2023-02-28T06:01:51;6.25;;;2.90;;
35276;SDS011;21401;50.878;8.050;2023-02-28T06:04:18;6.57;;;3.67;;
35276;SDS011;21401;50.878;8.050;2023-02-28T06:06:48;6.88;;;3.95;;
35276;SDS011;21401;50.878;8.050;2023-02-28T06:09:18;8.10;;;4.50;;
35276;SDS011;21401;50.878;8.050;2023-02-28T06:11:44;6.25;;;4.13;;
35276;SDS011;21401;50.878;8.050;2023-02-28T06:14:17;9.07;;;4.22;;
35276;SDS011;21401;50.878;8.050;2023-02-28T06:16:43;9.82;;;4.45;;
35276;SDS011;21401;50.878;8.050;2023-02-28T06:19:09;7.68;;;3.75;;
35276;SDS011;21401;50.878;8.050;2023-02-28T06:21:35;10.38;;;4.35;;
35276;SDS011;21401;50.878;8.050;2023-02-28T06:24:02;8.07;;;5.35;;
35276;SDS011;21401;50.878;8.050;2023-02-28T06:26:28;13.85;;;9.38;;
35276;SDS011;21401;50.878;8.050;2023-02-28T06:28:54;14.00;;;7.53;;
35276;SDS011;21401;50.878;8.050;2023-02-28T06:31:20;15.73;;;10.63;;
35276;SDS011;21401;50.878;8.050;2023-02-28T06:33:47;14.88;;;9.38;;
35276;SDS011;21401;50.878;8.050;2023-02-28T06:36:13;11.25;;;6.55;;
35276;SDS011;21401;50.878;8.050;2023-02-28T06:38:40;12.75;;;6.07;;
35276;SDS011;21401;50.878;8.050;2023-02-28T06:41:07;12.85;;;7.07;;
35276;SDS011;21401;50.878;8.050;2023-02-28T06:43:34;9.32;;;5.38;;
35276;SDS011;21401;50.878;8.050;2023-02-28T06:46:02;12.60;;;5.50;;
35276;SDS011;21401;50.878;8.050;2023-02-28T06:48:30;13.45;;;6.07;;
35276;SDS011;21401;50.878;8.050;2023-02-28T06:51:06;11.13;;;5.85;;
35276;SDS011;21401;50.878;8.050;2023-02-28T06:53:34;10.02;;;6.28;;
35276;SDS011;21401;50.878;8.050;2023-02-28T06:56:04;13.70;;;8.15;;
35276;SDS011;21401;50.878;8.050;2023-02-28T06:58:38;19.23;;;9.07;;
35276;SDS011;21401;50.878;8.050;2023-02-28T07:01:05;20.70;;;13.48;;
35276;SDS011;21401;50.878;8.050;2023-02-28T07:03:32;13.68;;;7.82;;
35276;SDS011;21401;50.878;8.050;2023-02-28T07:05:58;10.80;;;6.85;;
35276;SDS011;21401;50.878;8.050;2023-02-28T07:08:24;8.68;;;4.32;;
35276;SDS011;21401;50.878;8.050;2023-02-28T07:10:54;4.00;;;2.20;;
35276;SDS011;21401;50.878;8.050;2023-02-28T07:13:20;2.90;;;1.40;;
35276;SDS011;21401;50.878;8.050;2023-02-28T07:18:30;2.45;;;0.95;;
35276;SDS011;21401;50.878;8.050;2023-02-28T07:20:57;4.57;;;1.30;;
35276;SDS011;21401;50.878;8.050;2023-02-28T07:23:23;2.55;;;1.00;;
35276;SDS011;21401;50.878;8.050;2023-02-28T07:25:49;2.95;;;1.30;;
35276;SDS011;21401;50.878;8.050;2023-02-28T07:28:15;4.07;;;1.13;;
35276;SDS011;21401;50.878;8.050;2023-02-28T07:30:41;1.85;;;0.82;;
35276;SDS011;21401;50.878;8.050;2023-02-28T07:33:07;1.83;;;1.10;;
35276;SDS011;21401;50.878;8.050;2023-02-28T07:35:33;5.80;;;0.95;;
35276;SDS011;21401;50.878;8.050;2023-02-28T07:37:59;2.95;;;1.33;;
35276;SDS011;21401;50.878;8.050;2023-02-28T07:40:25;2.55;;;1.08;;
35276;SDS011;21401;50.878;8.050;2023-02-28T07:42:51;2.10;;;1.17;;
35276;SDS011;21401;50.878;8.050;2023-02-28T07:45:17;4.07;;;1.55;;
35276;SDS011;21401;50.878;8.050;2023-02-28T07:47:43;1.55;;;0.80;;
35276;SDS011;21401;50.878;8.050;2023-02-28T07:50:10;2.25;;;1.05;;
35276;SDS011;21401;50.878;8.050;2023-02-28T07:52:38;2.95;;;1.05;;
35276;SDS011;21401;50.878;8.050;2023-02-28T07:55:04;2.97;;;1.08;;
35276;SDS011;21401;50.878;8.050;2023-02-28T07:57:31;1.52;;;0.95;;
35276;SDS011;21401;50.878;8.050;2023-02-28T07:59:57;2.20;;;0.90;;
35276;SDS011;21401;50.878;8.050;2023-02-28T08:02:23;1.65;;;1.05;;
35276;SDS011;21401;50.878;8.050;2023-02-28T08:04:48;3.42;;;1.20;;
35276;SDS011;21401;50.878;8.050;2023-02-28T08:07:15;2.20;;;1.40;;
35276;SDS011;21401;50.878;8.050;2023-02-28T08:09:41;1.65;;;0.90;;
35276;SDS011;21401;50.878;8.050;2023-02-28T08:12:08;7.03;;;1.02;;
35276;SDS011;21401;50.878;8.050;2023-02-28T08:14:35;1.75;;;0.90;;
35276;SDS011;21401;50.878;8.050;2023-02-28T08:17:01;2.67;;;1.17;;
35276;SDS011;21401;50.878;8.050;2023-02-28T08:19:27;2.67;;;0.90;;
35276;SDS011;21401;50.878;8.050;2023-02-28T08:21:54;1.73;;;0.95;;
35276;SDS011;21401;50.878;8.050;2023-02-28T08:24:20;2.20;;;1.08;;
35276;SDS011;21401;50.878;8.050;2023-02-28T08:26:45;2.50;;;1.13;;
35276;SDS011;21401;50.878;8.050;2023-02-28T08:29:11;3.58;;;1.30;;
35276;SDS011;21401;50.878;8.050;2023-02-28T08:31:36;3.78;;;1.23;;
35276;SDS011;21401;50.878;8.050;2023-02-28T08:34:09;3.35;;;1.08;;
35276;SDS011;21401;50.878;8.050;2023-02-28T08:36:36;1.73;;;0.90;;
35276;SDS011;21401;50.878;8.050;2023-02-28T08:39:02;4.05;;;1.50;;
35276;SDS011;21401;50.878;8.050;2023-02-28T08:41:28;1.70;;;1.00;;
35276;SDS011;21401;50.878;8.050;2023-02-28T08:43:54;1.40;;;0.98;;
35276;SDS011;21401;50.878;8.050;2023-02-28T08:46:20;1.38;;;0.98;;
35276;SDS011;21401;50.878;8.050;2023-02-28T08:48:46;2.42;;;1.10;;
35276;SDS011;21401;50.878;8.050;2023-02-28T08:51:16;1.83;;;0.95;;
35276;SDS011;21401;50.878;8.050;2023-02-28T08:53:46;2.55;;;1.10;;
35276;SDS011;21401;50.878;8.050;2023-02-28T08:56:14;2.10;;;1.02;;
35276;SDS011;21401;50.878;8.050;2023-02-28T08:58:42;2.15;;;1.02;;
35276;SDS011;21401;50.878;8.050;2023-02-28T09:01:09;1.92;;;1.05;;
35276;SDS011;21401;50.878;8.050;2023-02-28T09:03:36;2.00;;;1.10;;
35276;SDS011;21401;50.878;8.050;2023-02-28T09:06:03;2.65;;;0.98;;
35276;SDS011;21401;50.878;8.050;2023-02-28T09:08:29;2.00;;;1.33;;
35276;SDS011;21401;50.878;8.050;2023-02-28T09:10:56;3.38;;;1.25;;
35276;SDS011;21401;50.878;8.050;2023-02-28T09:13:23;1.98;;;1.00;;
35276;SDS011;21401;50.878;8.050;2023-02-28T09:15:49;2.80;;;1.00;;
35276;SDS011;21401;50.878;8.050;2023-02-28T09:18:15;2.63;;;1.23;;
35276;SDS011;21401;50.878;8.050;2023-02-28T09:20:41;1.77;;;0.85;;
35276;SDS011;21401;50.878;8.050;2023-02-28T09:23:09;4.07;;;1.60;;
35276;SDS011;21401;50.878;8.050;2023-02-28T09:25:35;4.65;;;1.60;;
35276;SDS011;21401;50.878;8.050;2023-02-28T09:28:01;3.08;;;1.30;;
35276;SDS011;21401;50.878;8.050;2023-02-28T09:30:28;2.88;;;1.40;;
35276;SDS011;21401;50.878;8.050;2023-02-28T09:32:54;5.18;;;1.40;;
35276;SDS011;21401;50.878;8.050;2023-02-28T09:35:23;2.25;;;1.42;;
35276;SDS011;21401;50.878;8.050;2023-02-28T09:37:50;1.58;;;1.23;;
35276;SDS011;21401;50.878;8.050;2023-02-28T09:40:17;3.72;;;1.52;;
35276;SDS011;21401;50.878;8.050;2023-02-28T09:42:49;2.28;;;1.23;;
35276;SDS011;21401;50.878;8.050;2023-02-28T09:45:31;4.90;;;1.48;;
35276;SDS011;21401;50.878;8.050;2023-02-28T09:48:14;2.53;;;1.40;;
35276;SDS011;21401;50.878;8.050;2023-02-28T09:50:51;2.25;;;1.10;;
35276;SDS011;21401;50.878;8.050;2023-02-28T09:53:26;3.53;;;1.50;;
35276;SDS011;21401;50.878;8.050;2023-02-28T09:56:42;1.55;;;1.10;;
35276;SDS011;21401;50.878;8.050;2023-02-28T10:05:08;3.42;;;1.20;;
35276;SDS011;21401;50.878;8.050;2023-02-28T10:12:43;1.88;;;1.38;;
35276;SDS011;21401;50.878;8.050;2023-02-28T10:15:14;1.92;;;1.20;;
35276;SDS011;21401;50.878;8.050;2023-02-28T10:17:42;2.88;;;1.48;;
35276;SDS011;21401;50.878;8.050;2023-02-28T10:20:11;2.53;;;1.40;;
35276;SDS011;21401;50.878;8.050;2023-02-28T10:25:26;3.95;;;1.67;;
35276;SDS011;21401;50.878;8.050;2023-02-28T10:27:54;2.08;;;1.20;;
35276;SDS011;21401;50.878;8.050;2023-02-28T10:30:25;5.05;;;1.80;;
35276;SDS011;21401;50.878;8.050;2023-02-28T10:32:52;3.72;;;1.80;;
35276;SDS011;21401;50.878;8.050;2023-02-28T10:35:23;2.60;;;1.45;;
35276;SDS011;21401;50.878;8.050;2023-02-28T10:37:54;2.70;;;1.60;;
35276;SDS011;21401;50.878;8.050;2023-02-28T10:42:55;4.00;;;2.13;;
35276;SDS011;21401;50.878;8.050;2023-02-28T10:45:22;4.43;;;1.92;;
35276;SDS011;21401;50.878;8.050;2023-02-28T10:47:52;3.53;;;1.70;;
35276;SDS011;21401;50.878;8.050;2023-02-28T10:53:48;2.35;;;1.80;;
35276;SDS011;21401;50.878;8.050;2023-02-28T11:01:16;4.90;;;1.75;;
35276;SDS011;21401;50.878;8.050;2023-02-28T11:03:42;3.97;;;1.98;;
35276;SDS011;21401;50.878;8.050;2023-02-28T11:06:12;3.20;;;1.85;;
35276;SDS011;21401;50.878;8.050;2023-02-28T11:08:57;4.13;;;1.77;;
35276;SDS011;21401;50.878;8.050;2023-02-28T11:11:26;2.97;;;1.75;;
35276;SDS011;21401;50.878;8.050;2023-02-28T11:13:58;5.07;;;2.10;;
35276;SDS011;21401;50.878;8.050;2023-02-28T11:16:37;2.80;;;1.55;;
35276;SDS011;21401;50.878;8.050;2023-02-28T11:19:04;5.38;;;2.38;;
35276;SDS011;21401;50.878;8.050;2023-02-28T11:21:45;2.83;;;1.70;;
35276;SDS011;21401;50.878;8.050;2023-02-28T11:24:23;3.42;;;1.92;;
35276;SDS011;21401;50.878;8.050;2023-02-28T11:26:58;3.28;;;1.92;;
35276;SDS011;21401;50.878;8.050;2023-02-28T11:29:26;3.60;;;2.05;;
35276;SDS011;21401;50.878;8.050;2023-02-28T11:34:45;3.65;;;2.15;;
35276;SDS011;21401;50.878;8.050;2023-02-28T11:37:16;3.05;;;2.13;;
35276;SDS011;21401;50.878;8.050;2023-02-28T11:39:44;5.20;;;1.87;;
35276;SDS011;21401;50.878;8.050;2023-02-28T11:42:22;4.40;;;2.22;;
35276;SDS011;21401;50.878;8.050;2023-02-28T11:52:56;5.45;;;2.70;;
35276;SDS011;21401;50.878;8.050;2023-02-28T12:12:05;3.97;;;2.58;;
35276;SDS011;21401;50.878;8.050;2023-02-28T12:20:45;5.25;;;3.22;;
35276;SDS011;21401;50.878;8.050;2023-02-28T12:23:21;4.20;;;2.90;;
35276;SDS011;21401;50.878;8.050;2023-02-28T12:26:05;6.65;;;2.78;;
35276;SDS011;21401;50.878;8.050;2023-02-28T12:28:43;4.95;;;3.17;;
35276;SDS011;21401;50.878;8.050;2023-02-28T12:31:26;4.13;;;2.97;;
35276;SDS011;21401;50.878;8.050;2023-02-28T12:33:58;5.88;;;2.88;;
35276;SDS011;21401;50.878;8.050;2023-02-28T12:36:26;7.68;;;2.80;;
35276;SDS011;21401;50.878;8.050;2023-02-28T12:38:59;4.30;;;3.08;;
35276;SDS011;21401;50.878;8.050;2023-02-28T12:41:42;5.20;;;3.22;;
35276;SDS011;21401;50.878;8.050;2023-02-28T12:44:15;9.05;;;2.60;;
35276;SDS011;21401;50.878;8.050;2023-02-28T12:46:51;3.85;;;2.78;;
35276;SDS011;21401;50.878;8.050;2023-02-28T12:49:34;4.13;;;2.88;;
35276;SDS011;21401;50.878;8.050;2023-02-28T12:52:07;4.10;;;2.45;;
35276;SDS011;21401;50.878;8.050;2023-02-28T12:54:48;7.45;;;3.05;;
35276;SDS011;21401;50.878;8.050;2023-02-28T12:57:44;4.47;;;2.60;;
35276;SDS011;21401;50.878;8.050;2023-02-28T13:00:20;6.10;;;2.90;;
35276;SDS011;21401;50.878;8.050;2023-02-28T13:11:49;3.00;;;2.30;;
35276;SDS011;21401;50.878;8.050;2023-02-28T13:14:29;6.15;;;3.47;;
35276;SDS011;21401;50.878;8.050;2023-02-28T13:17:03;3.85;;;2.85;;
35276;SDS011;21401;50.878;8.050;2023-02-28T13:27:54;6.35;;;2.30;;
35276;SDS011;21401;50.878;8.050;2023-02-28T13:36:07;4.78;;;3.17;;
35276;SDS011;21401;50.878;8.050;2023-02-28T13:38:42;5.85;;;2.58;;
35276;SDS011;21401;50.878;8.050;2023-02-28T13:41:52;5.40;;;3.30;;
35276;SDS011;21401;50.878;8.050;2023-02-28T13:44:00;3.95;;;2.65;;
35276;SDS011;21401;50.878;8.050;2023-02-28T13:46:26;5.32;;;3.30;;
35276;SDS011;21401;50.878;8.050;2023-02-28T13:48:52;5.28;;;3.00;;
35276;SDS011;21401;50.878;8.050;2023-02-28T13:51:34;4.30;;;2.85;;
35276;SDS011;21401;50.878;8.050;2023-02-28T13:54:24;4.03;;;2.75;;
35276;SDS011;21401;50.878;8.050;2023-02-28T13:57:05;4.20;;;2.67;;
35276;SDS011;21401;50.878;8.050;2023-02-28T13:59:57;3.90;;;2.72;;
35276;SDS011;21401;50.878;8.050;2023-02-28T14:08:34;5.63;;;3.55;;
35276;SDS011;21401;50.878;8.050;2023-02-28T14:11:04;5.60;;;3.17;;
35276;SDS011;21401;50.878;8.050;2023-02-28T14:13:42;4.20;;;2.83;;
35276;SDS011;21401;50.878;8.050;2023-02-28T14:16:16;7.70;;;3.22;;
35276;SDS011;21401;50.878;8.050;2023-02-28T14:18:50;5.38;;;3.20;;
35276;SDS011;21401;50.878;8.050;2023-02-28T14:21:26;3.50;;;3.00;;
35276;SDS011;21401;50.878;8.050;2023-02-28T14:32:33;7.25;;;3.13;;
35276;SDS011;21401;50.878;8.050;2023-02-28T14:38:20;3.60;;;2.20;;
35276;SDS011;21401;50.878;8.050;2023-02-28T14:40:51;9.27;;;2.88;;
35276;SDS011;21401;50.878;8.050;2023-02-28T14:43:26;5.50;;;3.08;;
35276;SDS011;21401;50.878;8.050;2023-02-28T14:45:54;3.70;;;2.80;;
35276;SDS011;21401;50.878;8.050;2023-02-28T14:48:23;5.05;;;3.00;;
35276;SDS011;21401;50.878;8.050;2023-02-28T14:50:54;6.05;;;3.70;;
35276;SDS011;21401;50.878;8.050;2023-02-28T14:53:26;9.35;;;2.97;;
35276;SDS011;21401;50.878;8.050;2023-02-28T14:55:54;4.85;;;3.25;;
35276;SDS011;21401;50.878;8.050;2023-02-28T15:00:54;3.92;;;3.13;;
35276;SDS011;21401;50.878;8.050;2023-02-28T15:03:32;7.00;;;2.90;;
35276;SDS011;21401;50.878;8.050;2023-02-28T15:06:01;5.97;;;3.22;;
35276;SDS011;21401;50.878;8.050;2023-02-28T15:08:29;4.72;;;3.08;;
35276;SDS011;21401;50.878;8.050;2023-02-28T15:11:01;4.82;;;3.20;;
35276;SDS011;21401;50.878;8.050;2023-02-28T15:13:36;5.95;;;3.10;;
35276;SDS011;21401;50.878;8.050;2023-02-28T15:16:03;4.53;;;3.15;;
35276;SDS011;21401;50.878;8.050;2023-02-28T15:21:32;8.32;;;3.58;;
35276;SDS011;21401;50.878;8.050;2023-02-28T15:26:30;5.22;;;3.15;;
35276;SDS011;21401;50.878;8.050;2023-02-28T15:29:00;5.38;;;3.03;;
35276;SDS011;21401;50.878;8.050;2023-02-28T15:31:31;7.25;;;3.60;;
35276;SDS011;21401;50.878;8.050;2023-02-28T15:34:02;9.23;;;3.17;;
35276;SDS011;21401;50.878;8.050;2023-02-28T15:36:30;5.00;;;3.30;;
35276;SDS011;21401;50.878;8.050;2023-02-28T15:38:58;5.03;;;3.13;;
35276;SDS011;21401;50.878;8.050;2023-02-28T15:41:27;4.88;;;3.10;;
35276;SDS011;21401;50.878;8.050;2023-02-28T15:46:55;5.32;;;3.17;;
35276;SDS011;21401;50.878;8.050;2023-02-28T15:49:32;6.00;;;3.17;;
35276;SDS011;21401;50.878;8.050;2023-02-28T15:52:15;5.32;;;3.40;;
35276;SDS011;21401;50.878;8.050;2023-02-28T15:54:51;7.65;;;4.00;;
35276;SDS011;21401;50.878;8.050;2023-02-28T15:57:18;5.22;;;3.50;;
35276;SDS011;21401;50.878;8.050;2023-02-28T15:59:57;5.80;;;3.38;;
35276;SDS011;21401;50.878;8.050;2023-02-28T16:02:33;6.95;;;3.22;;
35276;SDS011;21401;50.878;8.050;2023-02-28T16:07:41;5.95;;;3.10;;
35276;SDS011;21401;50.878;8.050;2023-02-28T16:10:09;5.97;;;3.05;;
35276;SDS011;21401;50.878;8.050;2023-02-28T16:12:37;7.20;;;3.10;;
35276;SDS011;21401;50.878;8.050;2023-02-28T16:15:20;4.10;;;2.80;;
35276;SDS011;21401;50.878;8.050;2023-02-28T16:17:48;6.07;;;3.17;;
35276;SDS011;21401;50.878;8.050;2023-02-28T16:20:19;6.50;;;3.00;;
35276;SDS011;21401;50.878;8.050;2023-02-28T16:22:48;5.32;;;3.30;;
35276;SDS011;21401;50.878;8.050;2023-02-28T16:25:14;8.35;;;3.13;;
35276;SDS011;21401;50.878;8.050;2023-02-28T16:27:42;5.28;;;3.75;;
35276;SDS011;21401;50.878;8.050;2023-02-28T16:30:21;4.53;;;2.92;;
35276;SDS011;21401;50.878;8.050;2023-02-28T16:32:50;5.57;;;3.50;;
35276;SDS011;21401;50.878;8.050;2023-02-28T16:35:16;7.22;;;3.13;;
35276;SDS011;21401;50.878;8.050;2023-02-28T16:37:42;5.03;;;3.15;;
35276;SDS011;21401;50.878;8.050;2023-02-28T16:40:13;5.43;;;3.28;;
35276;SDS011;21401;50.878;8.050;2023-02-28T16:42:41;5.43;;;3.58;;
35276;SDS011;21401;50.878;8.050;2023-02-28T16:45:13;6.70;;;3.10;;
35276;SDS011;21401;50.878;8.050;2023-02-28T16:47:41;7.97;;;3.10;;
35276;SDS011;21401;50.878;8.050;2023-02-28T16:50:16;4.70;;;3.00;;
35276;SDS011;21401;50.878;8.050;2023-02-28T16:52:45;4.32;;;3.35;;
35276;SDS011;21401;50.878;8.050;2023-02-28T16:55:10;6.43;;;3.60;;
35276;SDS011;21401;50.878;8.050;2023-02-28T16:57:37;6.53;;;3.35;;
35276;SDS011;21401;50.878;8.050;2023-02-28T17:00:05;6.30;;;3.13;;
35276;SDS011;21401;50.878;8.050;2023-02-28T17:02:33;5.97;;;3.00;;
35276;SDS011;21401;50.878;8.050;2023-02-28T17:04:59;4.70;;;2.97;;
35276;SDS011;21401;50.878;8.050;2023-02-28T17:07:25;5.50;;;2.85;;
35276;SDS011;21401;50.878;8.050;2023-02-28T17:09:50;6.18;;;3.00;;
35276;SDS011;21401;50.878;8.050;2023-02-28T17:12:16;8.50;;;3.03;;
35276;SDS011;21401;50.878;8.050;2023-02-28T17:14:42;4.82;;;3.30;;
35276;SDS011;21401;50.878;8.050;2023-02-28T17:17:09;4.80;;;3.20;;
35276;SDS011;21401;50.878;8.050;2023-02-28T17:19:41;4.80;;;2.55;;
35276;SDS011;21401;50.878;8.050;2023-02-28T17:22:08;6.45;;;2.80;;
35276;SDS011;21401;50.878;8.050;2023-02-28T17:24:35;5.30;;;2.90;;